Time;durP1;ratioP1;P1;durP2;ratioP2;P2;SDS_P1;SDS_P2;PMS_P1;PMS_P2;Temp;Humidity;BMP_temperature;BMP_pressure;BME280_temperature;BME280_humidity;BME280_pressure;Samples;Min_cycle;Max_cycle;Signal;HPM_P1;HPM_P2
2023/01/04 00:01:05;;;;;;;4.97;3.15;;;8.10;99.90;;;;;;5003486;28;20058;-78
2023/01/04 00:03:32;;;;;;;4.35;3.65;;;8.10;99.90;;;;;;4994878;28;20045;-77
2023/01/04 00:05:59;;;;;;;5.55;2.65;;;8.10;99.90;;;;;;5004289;28;20128;-77
2023/01/04 00:08:25;;;;;;;7.43;4.13;;;8.10;99.90;;;;;;5000980;28;20129;-77
2023/01/04 00:10:51;;;;;;;4.88;4.32;;;8.10;99.90;;;;;;5005094;28;20038;-76
2023/01/04 00:13:16;;;;;;;3.75;2.35;;;8.10;99.90;;;;;;5006213;28;20219;-76
2023/01/04 00:15:42;;;;;;;4.13;3.22;;;8.10;99.90;;;;;;5005641;28;20064;-77
2023/01/04 00:18:07;;;;;;;5.07;2.83;;;8.10;99.90;;;;;;5003167;28;20443;-76
2023/01/04 00:20:33;;;;;;;6.10;3.70;;;8.10;99.90;;;;;;5005965;28;20068;-77
2023/01/04 00:22:59;;;;;;;5.00;3.40;;;8.10;99.90;;;;;;5002681;28;20030;-77
2023/01/04 00:25:25;;;;;;;5.18;3.38;;;8.10;99.90;;;;;;5004001;28;20519;-76
2023/01/04 00:27:51;;;;;;;6.40;3.13;;;8.10;99.90;;;;;;5000636;28;20053;-77
2023/01/04 00:30:17;;;;;;;5.35;3.17;;;8.10;99.90;;;;;;4999036;28;20270;-77
2023/01/04 00:32:44;;;;;;;5.13;3.33;;;8.10;99.90;;;;;;4997234;28;20046;-77
2023/01/04 00:35:10;;;;;;;4.70;3.30;;;8.10;99.90;;;;;;4985443;28;20057;-78
2023/01/04 00:37:36;;;;;;;10.18;3.15;;;8.10;99.90;;;;;;4985300;28;20541;-77
2023/01/04 00:40:02;;;;;;;5.75;3.15;;;8.10;99.90;;;;;;5003842;28;20038;-77
2023/01/04 00:42:28;;;;;;;7.40;3.42;;;8.10;99.90;;;;;;5003639;28;20495;-77
2023/01/04 00:44:53;;;;;;;7.85;2.85;;;8.20;99.90;;;;;;5002019;28;20037;-77
2023/01/04 00:47:19;;;;;;;6.55;3.58;;;8.20;99.90;;;;;;4988556;28;20502;-78
2023/01/04 00:49:44;;;;;;;5.57;3.75;;;8.20;99.90;;;;;;4997587;28;20037;-78
2023/01/04 00:52:10;;;;;;;4.97;3.30;;;8.20;99.90;;;;;;5004865;28;20125;-77
2023/01/04 00:54:35;;;;;;;4.47;3.45;;;8.20;99.90;;;;;;4999723;28;20262;-78
2023/01/04 00:57:01;;;;;;;3.97;2.65;;;8.20;99.90;;;;;;4996662;28;20053;-77
2023/01/04 00:59:27;;;;;;;4.45;3.08;;;8.20;99.90;;;;;;4990164;28;20480;-77
2023/01/04 01:01:53;;;;;;;5.63;3.88;;;8.20;99.90;;;;;;4984330;28;20450;-77
2023/01/04 01:04:21;;;;;;;3.13;2.70;;;8.20;99.90;;;;;;4985496;28;20042;-79
2023/01/04 01:06:48;;;;;;;6.22;2.92;;;8.20;99.90;;;;;;4998115;28;20344;-77
2023/01/04 01:09:13;;;;;;;4.00;2.70;;;8.20;99.90;;;;;;5003847;28;20500;-78
2023/01/04 01:11:39;;;;;;;4.30;2.83;;;8.20;99.90;;;;;;5000645;28;20048;-78
2023/01/04 01:14:07;;;;;;;3.75;2.38;;;8.30;99.90;;;;;;4987986;28;20066;-76
2023/01/04 01:16:33;;;;;;;3.95;2.92;;;8.20;99.90;;;;;;5001607;28;20053;-79
2023/01/04 01:18:58;;;;;;;4.10;2.33;;;8.20;99.90;;;;;;4999109;28;20038;-77
2023/01/04 01:21:27;;;;;;;4.45;3.60;;;8.20;99.90;;;;;;4967947;28;20137;-77
2023/01/04 01:23:54;;;;;;;5.22;2.83;;;8.20;99.90;;;;;;4993735;28;20403;-77
2023/01/04 01:26:22;;;;;;;3.45;2.20;;;8.30;99.90;;;;;;4990978;28;20401;-78
2023/01/04 01:28:48;;;;;;;3.80;2.13;;;8.30;99.90;;;;;;5001710;28;20100;-78
2023/01/04 01:31:19;;;;;;;5.70;4.07;;;8.30;99.90;;;;;;5004678;28;20042;-78
2023/01/04 01:33:46;;;;;;;5.30;2.47;;;8.30;99.90;;;;;;4999058;28;20038;-78
2023/01/04 01:36:13;;;;;;;5.55;2.75;;;8.30;99.90;;;;;;4984585;28;20477;-78
2023/01/04 01:38:40;;;;;;;4.53;2.58;;;8.30;99.90;;;;;;4985052;28;20104;-77
2023/01/04 01:41:07;;;;;;;3.17;2.30;;;8.30;99.90;;;;;;4983452;28;20225;-77
2023/01/04 01:44:00;;;;;;;5.07;2.80;;;8.30;99.90;;;;;;4984669;28;20046;-78
2023/01/04 01:46:27;;;;;;;;;;;8.30;99.90;;;;;;4981162;28;20085;-79
2023/01/04 01:48:59;;;;;;;2.45;1.88;;;8.30;99.90;;;;;;4989658;28;19922;-78
2023/01/04 01:51:26;;;;;;;2.85;2.58;;;8.30;99.90;;;;;;5002205;28;20042;-78
2023/01/04 01:53:58;;;;;;;3.33;1.90;;;8.30;99.90;;;;;;5000309;28;20073;-78
2023/01/04 01:56:27;;;;;;;2.47;1.83;;;8.30;99.90;;;;;;4993195;28;20057;-78
2023/01/04 01:58:54;;;;;;;3.15;1.77;;;8.30;99.90;;;;;;4988978;28;20061;-78
2023/01/04 02:01:20;;;;;;;6.47;2.20;;;8.30;99.90;;;;;;4988505;28;20525;-79
2023/01/04 02:03:46;;;;;;;3.97;2.50;;;8.30;99.90;;;;;;4988290;28;20042;-78
2023/01/04 02:06:23;;;;;;;4.38;2.00;;;8.30;99.90;;;;;;4991279;28;20046;-78
2023/01/04 02:08:49;;;;;;;3.47;1.85;;;8.40;99.90;;;;;;5001305;28;20034;-80
2023/01/04 02:11:14;;;;;;;2.38;1.88;;;8.40;99.90;;;;;;5007822;28;20385;-77
2023/01/04 02:16:45;;;;;;;1.77;1.50;;;8.40;99.90;;;;;;4987615;28;20046;-78
2023/01/04 02:19:25;;;;;;;2.45;1.58;;;8.40;99.90;;;;;;4987662;28;20211;-78
2023/01/04 02:22:00;;;;;;;2.50;1.25;;;8.40;99.90;;;;;;4987298;28;20050;-78
2023/01/04 02:24:57;;;;;;;2.20;1.67;;;8.40;99.90;;;;;;4988073;28;20051;-79
2023/01/04 02:27:53;;;;;;;3.10;1.90;;;8.40;99.90;;;;;;4993526;28;20081;-78
2023/01/04 02:30:49;;;;;;;3.13;2.03;;;8.40;99.90;;;;;;4986754;28;20054;-80
2023/01/04 02:33:20;;;;;;;2.33;1.95;;;8.40;99.90;;;;;;4986538;28;20108;-78
2023/01/04 02:35:51;;;;;;;4.18;1.92;;;8.40;99.90;;;;;;4986975;28;20137;-78
2023/01/04 02:38:35;;;;;;;1.95;1.75;;;8.40;99.90;;;;;;4987082;28;20440;-78
2023/01/04 02:41:23;;;;;;;3.25;1.67;;;8.40;99.90;;;;;;4998382;28;20050;-79
2023/01/04 02:46:47;;;;;;;2.55;1.55;;;8.50;99.90;;;;;;5004819;28;20153;-78
2023/01/04 02:51:57;;;;;;;1.63;1.52;;;8.50;99.90;;;;;;5007128;28;19974;-78
2023/01/04 02:54:29;;;;;;;1.95;1.50;;;8.50;99.90;;;;;;5006266;28;20315;-78
2023/01/04 02:57:09;;;;;;;4.15;2.00;;;8.50;99.90;;;;;;5007006;28;20567;-78
2023/01/04 02:59:46;;;;;;;2.33;1.50;;;8.50;99.90;;;;;;5007122;28;20068;-78
2023/01/04 03:08:40;;;;;;;2.35;1.73;;;8.60;99.90;;;;;;5002343;28;20050;-78
2023/01/04 03:14:09;;;;;;;3.38;2.17;;;8.60;99.90;;;;;;5006596;28;20050;-79
2023/01/04 03:16:37;;;;;;;2.15;1.92;;;8.70;99.90;;;;;;5002025;28;20046;-78
2023/01/04 03:19:08;;;;;;;3.17;1.83;;;8.70;99.90;;;;;;5006897;28;20049;-78
2023/01/04 03:21:35;;;;;;;2.28;2.08;;;8.70;99.90;;;;;;5006137;28;20103;-78
2023/01/04 03:35:57;;;;;;;3.80;2.97;;;8.90;99.90;;;;;;4999613;28;20092;-78
2023/01/04 03:50:36;;;;;;;5.10;3.88;;;9.10;99.90;;;;;;5006198;28;20057;-78
2023/01/04 03:53:04;;;;;;;8.48;4.85;;;9.20;99.90;;;;;;5002247;28;20061;-78
2023/01/04 03:55:32;;;;;;;13.15;5.53;;;9.30;99.90;;;;;;5005180;28;20111;-79
2023/01/04 03:57:58;;;;;;;8.23;4.75;;;9.30;99.90;;;;;;5005682;28;20094;-78
2023/01/04 04:00:24;;;;;;;17.00;6.85;;;9.40;99.90;;;;;;5005916;28;20404;-79
2023/01/04 04:02:49;;;;;;;11.90;5.53;;;9.50;99.90;;;;;;5004768;28;20049;-78
2023/01/04 04:10:47;;;;;;;12.45;4.47;;;9.60;99.90;;;;;;4986895;28;20120;-78
2023/01/04 04:13:12;;;;;;;11.13;5.00;;;9.60;99.90;;;;;;4985416;28;20046;-77
2023/01/04 04:15:38;;;;;;;8.18;4.88;;;9.60;99.90;;;;;;4986202;28;20472;-79
2023/01/04 04:18:05;;;;;;;10.82;4.88;;;9.70;99.90;;;;;;4984931;28;20051;-78
2023/01/04 04:20:30;;;;;;;9.35;5.70;;;9.70;99.90;;;;;;4986159;28;20492;-78
2023/01/04 04:22:56;;;;;;;14.45;5.15;;;9.70;99.90;;;;;;4985869;28;20038;-78
2023/01/04 04:25:21;;;;;;;19.15;6.00;;;9.80;99.90;;;;;;4975188;28;20103;-79
2023/01/04 04:27:47;;;;;;;12.98;5.75;;;9.80;99.90;;;;;;5006071;28;20720;-78
2023/01/04 04:30:13;;;;;;;16.10;5.32;;;9.80;99.90;;;;;;5005107;28;20571;-78
2023/01/04 04:32:38;;;;;;;9.30;5.88;;;9.80;99.90;;;;;;5003276;28;20546;-78
2023/01/04 04:35:04;;;;;;;11.55;6.65;;;9.90;99.90;;;;;;5005400;28;20540;-78
2023/01/04 04:37:30;;;;;;;14.60;6.25;;;9.80;99.90;;;;;;5004552;28;20053;-79
2023/01/04 04:39:57;;;;;;;9.90;6.15;;;9.90;99.90;;;;;;5002501;28;20052;-78
2023/01/04 04:42:23;;;;;;;10.23;5.82;;;9.90;99.90;;;;;;4996072;28;20033;-78
2023/01/04 04:44:48;;;;;;;24.00;6.57;;;9.90;99.90;;;;;;4994569;28;20088;-80
2023/01/04 04:47:14;;;;;;;9.43;5.63;;;9.90;99.90;;;;;;4983757;28;20058;-79
2023/01/04 04:49:40;;;;;;;13.40;5.30;;;9.90;99.90;;;;;;4997859;28;20042;-77
2023/01/04 04:52:05;;;;;;;13.95;5.18;;;9.90;99.90;;;;;;5004370;28;20077;-78
2023/01/04 04:54:31;;;;;;;13.77;5.45;;;9.90;99.90;;;;;;5004782;28;20258;-78
2023/01/04 04:56:56;;;;;;;6.85;4.00;;;9.90;99.90;;;;;;4991224;28;20046;-79
2023/01/04 04:59:22;;;;;;;10.45;4.53;;;10.00;99.90;;;;;;4993838;28;20046;-79
2023/01/04 05:01:48;;;;;;;6.97;5.10;;;10.00;99.90;;;;;;5000044;28;20129;-81
2023/01/04 05:04:18;;;;;;;7.50;2.92;;;10.00;99.90;;;;;;4997623;28;20133;-79
2023/01/04 05:06:46;;;;;;;10.57;3.47;;;10.00;99.90;;;;;;5001968;28;20046;-78
2023/01/04 05:09:15;;;;;;;7.40;2.90;;;10.00;99.90;;;;;;4995550;28;20096;-79
2023/01/04 05:14:26;;;;;;;5.15;3.65;;;10.00;99.90;;;;;;4985277;28;20133;-78
2023/01/04 05:16:51;;;;;;;8.43;3.65;;;10.10;99.90;;;;;;4983797;28;20042;-79
2023/01/04 05:19:17;;;;;;;4.72;2.92;;;10.10;99.90;;;;;;4983841;28;20448;-79
2023/01/04 05:21:43;;;;;;;4.97;2.78;;;10.10;99.90;;;;;;4983877;28;20113;-79
2023/01/04 05:24:11;;;;;;;5.18;2.63;;;10.10;99.90;;;;;;4984731;28;20133;-79
2023/01/04 05:26:37;;;;;;;3.63;1.63;;;10.10;99.90;;;;;;4997471;28;21026;-78
2023/01/04 05:29:03;;;;;;;2.70;2.10;;;10.10;99.90;;;;;;4990185;28;20117;-79
2023/01/04 05:31:28;;;;;;;3.92;2.47;;;10.10;99.90;;;;;;4990449;28;20580;-78
2023/01/04 05:33:54;;;;;;;5.90;2.78;;;10.10;99.90;;;;;;5002844;28;20042;-78
2023/01/04 05:36:20;;;;;;;3.25;2.25;;;10.10;99.90;;;;;;4993776;28;20729;-79
2023/01/04 05:38:45;;;;;;;2.95;2.00;;;10.10;99.90;;;;;;5000216;28;20153;-78
2023/01/04 05:43:55;;;;;;;10.90;3.72;;;10.10;99.90;;;;;;4985223;28;20060;-79
2023/01/04 05:46:21;;;;;;;2.83;1.98;;;10.20;99.90;;;;;;5003322;28;20038;-79
2023/01/04 05:48:46;;;;;;;6.40;2.92;;;10.20;99.90;;;;;;5003676;28;20042;-79
2023/01/04 05:51:12;;;;;;;5.35;2.42;;;10.20;99.90;;;;;;5004164;28;20048;-79
2023/01/04 05:53:38;;;;;;;9.45;3.45;;;10.20;99.90;;;;;;5004709;28;20062;-79
2023/01/04 05:56:04;;;;;;;5.25;3.35;;;10.10;99.90;;;;;;5003020;28;20458;-79
2023/01/04 05:58:29;;;;;;;11.13;3.63;;;10.20;99.90;;;;;;5004209;28;20046;-79
2023/01/04 06:00:55;;;;;;;6.13;3.08;;;10.20;99.90;;;;;;4992162;28;20053;-79
2023/01/04 06:03:21;;;;;;;11.85;4.03;;;10.20;99.90;;;;;;4985734;28;20042;-79
2023/01/04 06:05:50;;;;;;;17.08;4.00;;;10.20;99.90;;;;;;4984744;28;20066;-78
2023/01/04 06:08:15;;;;;;;13.93;2.97;;;10.20;99.90;;;;;;5001181;28;20041;-79
2023/01/04 06:10:41;;;;;;;10.18;3.65;;;10.20;99.90;;;;;;5003991;28;20045;-79
2023/01/04 06:13:06;;;;;;;7.30;2.42;;;10.20;99.90;;;;;;4991326;28;20041;-79
2023/01/04 06:15:32;;;;;;;6.47;2.55;;;10.20;99.90;;;;;;4987212;28;20042;-79
2023/01/04 06:17:57;;;;;;;11.25;4.32;;;10.20;99.90;;;;;;5002612;28;20060;-79
2023/01/04 06:20:23;;;;;;;9.15;3.45;;;10.20;99.90;;;;;;5001136;28;20045;-79
2023/01/04 06:22:49;;;;;;;8.95;3.65;;;10.20;99.90;;;;;;5003559;28;20535;-81
2023/01/04 06:25:14;;;;;;;8.98;5.05;;;10.20;99.90;;;;;;5004635;28;20050;-79
2023/01/04 06:27:40;;;;;;;8.00;1.92;;;10.20;99.90;;;;;;5004036;28;20531;-79
2023/01/04 06:30:06;;;;;;;8.02;3.10;;;10.20;99.90;;;;;;5003859;28;20046;-79
2023/01/04 06:32:32;;;;;;;9.35;2.60;;;10.20;99.90;;;;;;5003356;28;20107;-78
2023/01/04 06:34:58;;;;;;;15.82;3.35;;;10.20;99.90;;;;;;5004024;28;20493;-79
2023/01/04 06:37:23;;;;;;;18.73;3.90;;;10.20;99.90;;;;;;4998036;28;20034;-79
2023/01/04 06:39:49;;;;;;;10.05;3.13;;;10.20;99.90;;;;;;4988839;28;20428;-80
2023/01/04 06:42:56;;;;;;;15.45;3.08;;;10.20;99.90;;;;;;5008198;28;20160;-79
2023/01/04 06:45:03;;;;;;;12.38;4.28;;;10.20;99.90;;;;;;5004338;28;20487;-79
2023/01/04 06:47:29;;;;;;;11.73;2.97;;;10.20;99.90;;;;;;5005036;28;20045;-81
2023/01/04 06:49:55;;;;;;;7.05;3.30;;;10.20;99.90;;;;;;5006548;28;20034;-80
2023/01/04 06:52:20;;;;;;;7.38;2.53;;;10.20;99.90;;;;;;5007170;28;20046;-81
2023/01/04 06:54:46;;;;;;;10.25;3.90;;;10.30;99.90;;;;;;4986898;28;20635;-80
2023/01/04 06:57:12;;;;;;;12.40;4.85;;;10.30;99.90;;;;;;4997018;28;20042;-80
2023/01/04 06:59:37;;;;;;;13.77;4.07;;;10.30;99.90;;;;;;4997471;28;20188;-80
2023/01/04 07:02:03;;;;;;;11.50;4.18;;;10.30;99.90;;;;;;4986374;28;20045;-81
2023/01/04 07:04:28;;;;;;;15.05;4.53;;;10.30;99.90;;;;;;4988665;28;20041;-80
2023/01/04 07:06:54;;;;;;;8.93;3.13;;;10.30;99.90;;;;;;4998217;28;20492;-81
2023/01/04 07:09:19;;;;;;;13.38;3.13;;;10.40;99.90;;;;;;5002472;28;20049;-82
2023/01/04 07:11:45;;;;;;;11.52;3.65;;;10.30;99.90;;;;;;5004010;28;20404;-81
2023/01/04 07:14:11;;;;;;;15.50;4.45;;;10.30;99.90;;;;;;5000354;28;20050;-79
2023/01/04 07:16:36;;;;;;;14.85;4.07;;;10.30;99.90;;;;;;4993902;28;20041;-79
2023/01/04 07:19:02;;;;;;;16.13;5.18;;;10.30;99.90;;;;;;5004862;28;20046;-80
2023/01/04 07:21:28;;;;;;;12.48;4.40;;;10.40;99.90;;;;;;4988457;28;20035;-78
2023/01/04 07:23:54;;;;;;;20.60;5.13;;;10.30;99.90;;;;;;4988175;28;20045;-80
2023/01/04 07:26:19;;;;;;;16.52;4.30;;;10.30;99.90;;;;;;4993041;28;20514;-79
2023/01/04 07:31:29;;;;;;;15.13;4.10;;;10.30;99.90;;;;;;4987652;28;20046;-80
2023/01/04 07:33:55;;;;;;;10.63;3.33;;;10.30;99.90;;;;;;5003351;28;20046;-80
2023/01/04 07:36:20;;;;;;;8.55;4.20;;;10.30;99.90;;;;;;5006672;28;20030;-79
2023/01/04 07:38:46;;;;;;;14.32;4.47;;;10.30;99.90;;;;;;5006261;28;20054;-80
2023/01/04 07:41:12;;;;;;;16.17;3.92;;;10.30;99.90;;;;;;5006233;28;20038;-80
2023/01/04 07:43:37;;;;;;;10.77;2.92;;;10.30;99.90;;;;;;5006741;28;20049;-80
2023/01/04 07:46:03;;;;;;;8.77;3.15;;;10.30;99.90;;;;;;4998056;28;20390;-80
2023/01/04 07:48:28;;;;;;;12.63;4.22;;;10.30;99.90;;;;;;4987336;28;20046;-80
2023/01/04 07:51:00;;;;;;;7.07;3.25;;;10.40;99.90;;;;;;5004487;28;20037;-80
2023/01/04 07:53:25;;;;;;;5.63;2.45;;;10.30;99.90;;;;;;5004868;28;20050;-80
2023/01/04 07:55:57;;;;;;;9.02;3.42;;;10.40;99.90;;;;;;5006188;28;20484;-79
2023/01/04 07:58:23;;;;;;;15.15;2.63;;;10.30;99.90;;;;;;5003368;28;20042;-79
2023/01/04 08:00:49;;;;;;;14.15;3.97;;;10.40;99.90;;;;;;4984461;28;20382;-80
2023/01/04 08:03:15;;;;;;;9.10;3.28;;;10.30;99.90;;;;;;4985874;28;20077;-80
2023/01/04 08:05:41;;;;;;;8.88;2.90;;;10.30;99.90;;;;;;4986512;28;20050;-79
2023/01/04 08:08:07;;;;;;;10.45;2.88;;;10.40;99.90;;;;;;4986087;28;20460;-79
2023/01/04 08:10:32;;;;;;;11.35;2.95;;;10.40;99.90;;;;;;4986598;28;20042;-79
2023/01/04 08:12:59;;;;;;;13.85;3.17;;;10.40;99.90;;;;;;4990772;28;20113;-79
2023/01/04 08:15:25;;;;;;;11.07;4.45;;;10.40;99.90;;;;;;5003745;28;20050;-81
2023/01/04 08:17:51;;;;;;;11.05;3.85;;;10.40;99.90;;;;;;4992061;28;20054;-79
2023/01/04 08:20:17;;;;;;;9.90;3.30;;;10.40;99.90;;;;;;5006788;28;20050;-79
2023/01/04 08:22:42;;;;;;;8.85;3.50;;;10.40;99.90;;;;;;5004788;28;20038;-79
2023/01/04 08:25:08;;;;;;;10.85;4.45;;;10.40;99.90;;;;;;5004650;28;20737;-79
2023/01/04 08:27:34;;;;;;;10.45;3.70;;;10.50;99.90;;;;;;5005475;28;20042;-79
2023/01/04 08:30:00;;;;;;;12.52;4.75;;;10.50;99.90;;;;;;5004313;28;20164;-80
2023/01/04 08:32:25;;;;;;;11.25;4.07;;;10.50;99.90;;;;;;5003325;28;20037;-79
2023/01/04 08:34:53;;;;;;;13.52;4.97;;;10.50;99.90;;;;;;5005922;28;20099;-79
2023/01/04 08:37:18;;;;;;;8.52;3.78;;;10.50;99.90;;;;;;5006686;28;20085;-81
2023/01/04 08:39:44;;;;;;;12.70;3.70;;;10.50;99.90;;;;;;5006592;28;20037;-80
2023/01/04 08:42:09;;;;;;;11.15;4.43;;;10.50;99.90;;;;;;5001613;28;20041;-79
2023/01/04 08:44:35;;;;;;;15.82;4.63;;;10.50;99.90;;;;;;5004861;28;20412;-79
2023/01/04 08:47:01;;;;;;;10.68;4.00;;;10.50;99.90;;;;;;5002150;28;20038;-79
2023/01/04 08:49:26;;;;;;;10.73;3.33;;;10.50;99.90;;;;;;4989065;28;20538;-79
2023/01/04 08:51:52;;;;;;;15.98;4.70;;;10.50;99.90;;;;;;4999435;28;21494;-79
2023/01/04 08:54:18;;;;;;;16.70;3.97;;;10.50;99.90;;;;;;4989271;28;20095;-79
2023/01/04 08:56:43;;;;;;;11.70;3.67;;;10.50;99.90;;;;;;4994560;28;20042;-79
2023/01/04 08:59:11;;;;;;;21.17;5.25;;;10.60;99.90;;;;;;5001365;28;20053;-79
2023/01/04 09:01:38;;;;;;;15.25;3.78;;;10.50;99.90;;;;;;5001915;28;20054;-79
2023/01/04 09:04:04;;;;;;;15.88;5.40;;;10.50;99.90;;;;;;4997531;28;20204;-80
2023/01/04 09:06:30;;;;;;;22.77;5.00;;;10.60;99.90;;;;;;5002825;28;20056;-80
2023/01/04 09:08:56;;;;;;;21.67;5.25;;;10.50;99.90;;;;;;5004951;28;20472;-80
2023/01/04 09:11:22;;;;;;;23.10;5.15;;;10.60;99.90;;;;;;5004976;28;20042;-80
2023/01/04 09:13:56;;;;;;;17.45;4.40;;;10.60;99.90;;;;;;4993306;28;20050;-79
2023/01/04 09:16:22;;;;;;;16.90;4.78;;;10.60;99.90;;;;;;4994677;28;20045;-79
2023/01/04 09:18:47;;;;;;;15.25;5.47;;;10.60;99.90;;;;;;4994568;28;20049;-78
2023/01/04 09:21:15;;;;;;;20.33;6.22;;;10.70;99.90;;;;;;4984860;28;20074;-79
2023/01/04 09:23:42;;;;;;;17.63;4.72;;;10.60;99.90;;;;;;4985019;28;20044;-79
2023/01/04 09:26:10;;;;;;;10.88;4.32;;;10.70;99.90;;;;;;4985369;28;20042;-79
2023/01/04 09:28:36;;;;;;;16.58;5.35;;;10.60;99.90;;;;;;4985576;28;20061;-79
2023/01/04 09:31:13;;;;;;;12.25;4.63;;;10.70;99.90;;;;;;5001356;28;20050;-79
2023/01/04 09:33:39;;;;;;;15.63;4.57;;;10.70;99.90;;;;;;5005301;28;20198;-79
2023/01/04 09:36:06;;;;;;;15.23;5.63;;;10.70;99.90;;;;;;5004438;28;20069;-77
2023/01/04 09:38:34;;;;;;;37.83;5.40;;;10.70;99.90;;;;;;5000514;28;20125;-78
2023/01/04 09:41:33;;;;;;;24.27;6.68;;;10.80;99.90;;;;;;5019240;28;20057;-78
2023/01/04 09:44:08;;;;;;;16.85;5.53;;;10.80;99.90;;;;;;4992679;28;20121;-79
2023/01/04 09:46:48;;;;;;;17.48;5.85;;;10.90;99.90;;;;;;4992415;28;20079;-78
2023/01/04 09:49:26;;;;;;;12.55;4.55;;;10.90;99.90;;;;;;4985847;28;20054;-79
2023/01/04 09:52:34;;;;;;;20.70;4.60;;;10.90;99.90;;;;;;4984214;28;20444;-78
2023/01/04 09:55:06;;;;;;;15.10;5.72;;;10.90;99.90;;;;;;4952540;28;20050;-78
2023/01/04 09:57:36;;;;;;;22.45;5.20;;;11.00;99.90;;;;;;4985502;28;20370;-78
2023/01/04 10:00:07;;;;;;;17.08;4.85;;;11.00;99.90;;;;;;4984373;28;20054;-79
2023/01/04 10:02:55;;;;;;;27.02;6.32;;;11.00;99.90;;;;;;5000943;28;20425;-82
2023/01/04 10:05:25;;;;;;;19.58;5.20;;;11.00;99.90;;;;;;5001542;28;20121;-79
2023/01/04 10:07:51;;;;;;;18.52;4.40;;;11.10;99.90;;;;;;5001474;28;20073;-82
2023/01/04 10:10:21;;;;;;;23.50;7.65;;;11.10;99.90;;;;;;4991761;28;20483;-80
2023/01/04 10:12:59;;;;;;;12.70;3.65;;;11.10;99.90;;;;;;4992088;28;20042;-80
2023/01/04 10:15:59;;;;;;;15.60;5.00;;;11.10;99.90;;;;;;4997385;28;20056;-85
2023/01/04 10:18:34;;;;;;;15.40;5.40;;;11.20;99.90;;;;;;5007257;28;20049;-81
2023/01/04 10:21:27;;;;;;;21.50;6.10;;;11.20;99.90;;;;;;5004750;28;20046;-81
2023/01/04 10:24:18;;;;;;;24.30;6.57;;;11.20;99.90;;;;;;5005234;28;20610;-81
2023/01/04 10:26:47;;;;;;;19.10;6.07;;;11.20;99.90;;;;;;5006081;28;20512;-81
2023/01/04 10:29:26;;;;;;;26.83;5.75;;;11.30;99.90;;;;;;5008880;28;20041;-80
2023/01/04 10:32:11;;;;;;;25.67;5.70;;;11.30;99.90;;;;;;5000079;28;20041;-82
2023/01/04 10:34:40;;;;;;;16.70;5.50;;;11.30;99.90;;;;;;4996360;28;20034;-81
2023/01/04 10:37:19;;;;;;;10.82;4.93;;;11.30;99.90;;;;;;5005909;28;20037;-81
2023/01/04 10:39:46;;;;;;;25.85;5.43;;;11.40;99.90;;;;;;5002557;28;20057;-81
2023/01/04 10:42:30;;;;;;;13.32;5.18;;;11.40;99.90;;;;;;5002676;28;20037;-80
2023/01/04 10:45:02;;;;;;;19.17;5.13;;;11.40;99.90;;;;;;5000808;28;20033;-81
2023/01/04 10:47:43;;;;;;;23.45;5.75;;;11.40;99.90;;;;;;5005924;28;20320;-80
2023/01/04 10:50:28;;;;;;;21.58;5.85;;;11.40;99.90;;;;;;4986632;28;20475;-81
2023/01/04 10:53:33;;;;;;;13.05;5.05;;;11.40;99.90;;;;;;5004948;28;20034;-80
2023/01/04 10:56:20;;;;;;;27.95;4.63;;;11.40;99.90;;;;;;4986861;28;20049;-80
2023/01/04 10:58:49;;;;;;;11.20;3.20;;;11.40;99.90;;;;;;5005829;28;20046;-81
2023/01/04 11:01:27;;;;;;;15.95;4.63;;;11.40;99.90;;;;;;5006375;28;20107;-81
2023/01/04 11:04:01;;;;;;;29.67;5.43;;;11.50;99.90;;;;;;5003812;28;20054;-79
2023/01/04 11:06:39;;;;;;;13.32;6.22;;;11.50;99.90;;;;;;5007149;28;20108;-80
2023/01/04 11:09:27;;;;;;;19.40;5.65;;;11.50;99.90;;;;;;5002909;28;20049;-79
2023/01/04 11:11:56;;;;;;;21.20;5.93;;;11.50;99.90;;;;;;5006297;28;20071;-79
2023/01/04 11:14:24;;;;;;;26.02;7.72;;;11.50;99.90;;;;;;5008843;28;20049;-81
2023/01/04 11:16:55;;;;;;;37.83;7.00;;;11.50;99.90;;;;;;5005757;28;20121;-81
2023/01/04 11:19:23;;;;;;;19.58;5.45;;;11.50;99.90;;;;;;5001875;28;20041;-83
2023/01/04 11:21:57;;;;;;;11.18;5.88;;;11.50;99.90;;;;;;5020020;28;20389;-82
2023/01/04 11:24:22;;;;;;;31.08;8.90;;;11.50;99.90;;;;;;5004893;28;20061;-80
2023/01/04 11:26:50;;;;;;;13.40;5.68;;;11.50;99.90;;;;;;5006054;28;20045;-80
2023/01/04 11:29:59;;;;;;;16.75;4.65;;;11.50;99.90;;;;;;5004438;28;20050;-82
2023/01/04 11:32:51;;;;;;;18.35;6.47;;;11.50;99.90;;;;;;5005418;28;20444;-81
2023/01/04 11:35:38;;;;;;;26.80;5.78;;;11.50;99.90;;;;;;4972019;28;20078;-81
2023/01/04 11:38:21;;;;;;;12.00;4.60;;;11.50;99.90;;;;;;5004527;28;20053;-80
2023/01/04 11:40:54;;;;;;;16.80;4.13;;;11.50;99.90;;;;;;4998717;28;20049;-83
2023/01/04 11:43:21;;;;;;;10.93;4.15;;;11.50;99.90;;;;;;4995165;28;20112;-85
2023/01/04 11:46:00;;;;;;;21.98;5.10;;;11.50;99.90;;;;;;5000736;28;20045;-83
2023/01/04 11:48:41;;;;;;;10.88;3.70;;;11.60;99.90;;;;;;5005010;28;20057;-83
2023/01/04 11:51:25;;;;;;;10.52;4.03;;;11.60;99.90;;;;;;5005607;28;20030;-82
2023/01/04 11:54:05;;;;;;;16.17;6.45;;;11.60;99.90;;;;;;5019388;28;20092;-84
2023/01/04 11:56:34;;;;;;;13.77;4.30;;;11.50;99.90;;;;;;5005799;28;20050;-82
2023/01/04 11:59:03;;;;;;;13.30;5.88;;;11.60;99.90;;;;;;5005228;28;20045;-81
2023/01/04 12:01:30;;;;;;;15.38;4.47;;;11.60;99.90;;;;;;5004649;28;20061;-81
2023/01/04 12:03:56;;;;;;;14.48;4.10;;;11.60;99.90;;;;;;5003142;28;20045;-80
2023/01/04 12:06:40;;;;;;;13.88;4.53;;;11.60;99.90;;;;;;5003969;28;20042;-81
2023/01/04 12:09:13;;;;;;;10.90;4.20;;;11.60;99.90;;;;;;4995515;28;20053;-79
2023/01/04 12:11:42;;;;;;;8.30;3.30;;;11.60;99.90;;;;;;5025130;28;20463;-79
2023/01/04 12:14:22;;;;;;;11.32;3.83;;;11.60;99.90;;;;;;5020974;28;20437;-80
2023/01/04 12:17:06;;;;;;;10.57;4.93;;;11.60;99.90;;;;;;5024462;28;20099;-79
2023/01/04 12:19:34;;;;;;;10.30;3.47;;;11.60;99.90;;;;;;5007845;28;20574;-80
2023/01/04 12:22:02;;;;;;;17.00;3.25;;;11.50;99.90;;;;;;5006239;28;20050;-80
2023/01/04 12:24:30;;;;;;;16.83;4.57;;;11.50;99.90;;;;;;5005922;28;20050;-80
2023/01/04 12:26:57;;;;;;;12.38;2.65;;;11.50;99.90;;;;;;5005126;28;20530;-80
2023/01/04 12:29:22;;;;;;;9.48;2.38;;;11.50;99.90;;;;;;5004709;28;20091;-80
2023/01/04 12:31:50;;;;;;;6.43;2.97;;;11.50;99.90;;;;;;5004864;28;20045;-80
2023/01/04 12:34:21;;;;;;;17.40;3.85;;;11.50;99.90;;;;;;5001700;28;20502;-79
2023/01/04 12:36:50;;;;;;;10.87;3.20;;;11.50;99.90;;;;;;5001427;28;20120;-80
2023/01/04 12:39:15;;;;;;;10.07;2.70;;;11.50;99.90;;;;;;4999059;28;20309;-78
2023/01/04 12:41:59;;;;;;;4.65;2.45;;;11.50;99.90;;;;;;4988680;28;20056;-79
2023/01/04 12:44:39;;;;;;;17.00;2.92;;;11.50;99.90;;;;;;5001611;28;20065;-79
2023/01/04 12:50:09;;;;;;;9.93;3.10;;;11.50;99.90;;;;;;4993017;28;20092;-79
2023/01/04 12:52:38;;;;;;;14.63;3.58;;;11.40;99.90;;;;;;5004856;28;20068;-79
2023/01/04 12:55:25;;;;;;;12.15;3.90;;;11.40;99.90;;;;;;4987239;28;20050;-80
2023/01/04 12:57:52;;;;;;;10.13;3.28;;;11.40;99.90;;;;;;5001734;28;20046;-79
2023/01/04 13:00:17;;;;;;;14.05;3.80;;;11.40;99.90;;;;;;4993187;28;20054;-79
2023/01/04 13:02:51;;;;;;;8.48;3.45;;;11.40;99.90;;;;;;4996646;28;20569;-79
2023/01/04 13:05:16;;;;;;;18.60;3.85;;;11.40;99.90;;;;;;5003593;28;20038;-79
2023/01/04 13:07:44;;;;;;;11.18;3.80;;;11.40;99.90;;;;;;5003479;28;20050;-79
2023/01/04 13:10:52;;;;;;;20.13;4.93;;;11.40;99.90;;;;;;5000101;28;20067;-79
2023/01/04 13:13:32;;;;;;;9.02;3.45;;;11.40;99.90;;;;;;4996230;28;20053;-79
2023/01/04 13:16:21;;;;;;;11.50;3.30;;;11.40;99.90;;;;;;5017242;28;20451;-79
2023/01/04 13:19:01;;;;;;;14.02;4.10;;;11.40;99.90;;;;;;5025368;28;20048;-79
2023/01/04 13:21:44;;;;;;;8.93;4.35;;;11.40;99.90;;;;;;4994544;28;20050;-80
2023/01/04 13:24:29;;;;;;;15.73;5.18;;;11.40;99.90;;;;;;4996506;28;20066;-79
2023/01/04 13:26:55;;;;;;;9.55;4.32;;;11.40;99.90;;;;;;5002678;28;20196;-79
2023/01/04 13:29:22;;;;;;;9.15;2.92;;;11.40;99.90;;;;;;4997914;28;20539;-80
2023/01/04 13:32:10;;;;;;;19.80;5.45;;;11.40;99.90;;;;;;4985927;28;20608;-79
2023/01/04 13:34:36;;;;;;;12.68;4.07;;;11.40;99.90;;;;;;5001747;28;20050;-79
2023/01/04 13:37:12;;;;;;;18.42;4.03;;;11.40;99.90;;;;;;5003915;28;20068;-79
2023/01/04 13:39:46;;;;;;;20.52;5.00;;;11.40;99.90;;;;;;5004142;28;20042;-79
2023/01/04 13:42:24;;;;;;;14.95;5.60;;;11.40;99.90;;;;;;4993563;28;20045;-78
2023/01/04 13:45:26;;;;;;;24.40;5.57;;;11.30;99.90;;;;;;5002790;28;20492;-81
2023/01/04 13:47:57;;;;;;;8.38;4.10;;;11.30;99.90;;;;;;4993618;28;20046;-79
2023/01/04 13:50:31;;;;;;;13.10;4.75;;;11.30;99.90;;;;;;4999753;28;20058;-80
2023/01/04 13:52:57;;;;;;;14.23;3.17;;;11.30;99.90;;;;;;5002797;28;20120;-81
2023/01/04 13:55:26;;;;;;;16.92;5.07;;;11.40;99.90;;;;;;5001254;28;20461;-79
2023/01/04 13:58:05;;;;;;;13.73;5.05;;;11.20;99.90;;;;;;4992964;28;20151;-80
2023/01/04 14:00:56;;;;;;;14.68;3.70;;;11.40;99.90;;;;;;5001295;28;20053;-79